createdAt,value
2023-04-29T00:00:20.119Z,51
2023-04-29T00:05:17.170Z,50
2023-04-29T00:10:16.954Z,51
2023-04-29T00:15:20.138Z,52
2023-04-29T00:20:20.078Z,53
2023-04-29T00:25:20.107Z,55
2023-04-29T00:30:20.124Z,55
2023-04-29T00:35:20.117Z,59
2023-04-29T00:40:20.037Z,57
2023-04-29T00:45:20.185Z,60
2023-04-29T00:50:20.720Z,61
2023-04-29T00:55:20.107Z,62
2023-04-29T01:00:17.010Z,62
2023-04-29T01:05:20.181Z,64
2023-04-29T01:10:20.168Z,64
2023-04-29T01:15:20.297Z,64
2023-04-29T01:20:20.167Z,65
2023-04-29T01:25:20.221Z,65
2023-04-29T01:30:20.251Z,67
2023-04-29T01:35:20.240Z,68
2023-04-29T01:40:20.248Z,68
2023-04-29T01:45:20.177Z,69
2023-04-29T01:50:17.026Z,70
2023-04-29T01:55:17.257Z,71
2023-04-29T02:00:20.329Z,71
2023-04-29T02:05:20.240Z,72
2023-04-29T02:10:20.549Z,72
2023-04-29T02:15:20.206Z,71
2023-04-29T02:20:20.288Z,72
2023-04-29T02:25:20.334Z,71
2023-04-29T02:30:20.281Z,72
2023-04-29T02:35:20.295Z,71
2023-04-29T02:40:20.204Z,72
2023-04-29T02:45:17.192Z,72
2023-04-29T02:50:17.231Z,74
2023-04-29T02:55:20.374Z,73
2023-04-29T03:00:20.305Z,73
2023-04-29T03:05:20.339Z,74
2023-04-29T03:10:20.351Z,75
2023-04-29T03:15:20.526Z,76
2023-04-29T03:20:20.349Z,76
2023-04-29T03:25:20.312Z,76
2023-04-29T03:30:20.263Z,75
2023-04-29T03:35:20.334Z,76
2023-04-29T03:40:17.250Z,77
2023-04-29T03:45:20.510Z,77
2023-04-29T03:50:20.597Z,78
2023-04-29T03:55:20.433Z,78
2023-04-29T04:00:19.971Z,78
2023-04-29T04:05:19.655Z,78
2023-04-29T04:10:19.737Z,78
2023-04-29T04:15:19.686Z,78
2023-04-29T04:20:19.695Z,79
2023-04-29T04:25:19.664Z,80
2023-04-29T04:30:19.639Z,80
2023-04-29T04:35:19.713Z,81
2023-04-29T04:40:19.711Z,81
2023-04-29T04:45:16.614Z,81
2023-04-29T04:50:16.554Z,82
2023-04-29T04:55:19.876Z,83
2023-04-29T05:00:19.726Z,83
2023-04-29T05:05:19.688Z,83
2023-04-29T05:10:19.781Z,84
2023-04-29T05:15:19.733Z,84
2023-04-29T05:20:19.748Z,84
2023-04-29T05:25:19.770Z,85
2023-04-29T05:30:19.841Z,85
2023-04-29T05:35:19.789Z,85
2023-04-29T05:40:16.693Z,85
2023-04-29T05:45:16.697Z,86
2023-04-29T05:50:19.874Z,86
2023-04-29T05:55:19.961Z,86
2023-04-29T06:00:19.900Z,86
2023-04-29T06:05:20.174Z,87
2023-04-29T06:10:19.790Z,87
2023-04-29T06:15:19.800Z,87
2023-04-29T06:20:19.813Z,87
2023-04-29T06:25:20.001Z,87
2023-04-29T06:30:19.818Z,88
2023-04-29T06:35:16.839Z,88
2023-04-29T06:40:19.962Z,88
2023-04-29T06:45:19.970Z,88
2023-04-29T06:50:19.918Z,88
2023-04-29T06:55:19.894Z,89
2023-04-29T07:00:19.932Z,89
2023-04-29T07:05:19.880Z,89
2023-04-29T07:10:19.852Z,89
2023-04-29T07:15:16.897Z,89
2023-04-29T07:20:21.913Z,89
2023-04-29T07:25:16.996Z,89
2023-04-29T07:30:16.826Z,89
2023-04-29T07:35:19.932Z,89
2023-04-29T07:40:19.990Z,89
2023-04-29T07:45:20.038Z,89
2023-04-29T07:50:19.951Z,90
2023-04-29T07:55:20.135Z,90
2023-04-29T08:00:20.057Z,90
2023-04-29T08:05:20.344Z,90
2023-04-29T08:10:19.972Z,90
2023-04-29T08:15:19.917Z,90
2023-04-29T08:20:16.951Z,91
2023-04-29T08:25:16.926Z,91
2023-04-29T08:30:20.074Z,91
2023-04-29T08:35:20.093Z,91
2023-04-29T08:40:20.109Z,91
2023-04-29T08:45:20.135Z,92
2023-04-29T08:50:20.172Z,91
2023-04-29T08:55:20.162Z,91
2023-04-29T09:00:20.379Z,91
2023-04-29T09:05:20.173Z,91
2023-04-29T09:10:20.184Z,91
2023-04-29T09:15:17.044Z,91
2023-04-29T09:20:17.233Z,91
2023-04-29T09:25:20.285Z,91
2023-04-29T09:30:20.147Z,91
2023-04-29T09:35:20.147Z,91
2023-04-29T09:40:20.174Z,91
2023-04-29T09:45:20.238Z,91
2023-04-29T09:50:20.271Z,91
2023-04-29T09:55:20.146Z,91
2023-04-29T10:00:20.459Z,92
2023-04-29T10:05:22.607Z,92
2023-04-29T10:10:17.239Z,91
2023-04-29T10:15:20.482Z,92
2023-04-29T10:20:20.272Z,92
2023-04-29T10:25:20.291Z,92
2023-04-29T10:30:20.266Z,92
2023-04-29T10:35:20.443Z,92
2023-04-29T10:40:20.281Z,92
2023-04-29T10:45:20.241Z,92
2023-04-29T10:50:20.239Z,92
2023-04-29T10:55:20.309Z,92
2023-04-29T11:00:17.210Z,92
2023-04-29T11:05:17.257Z,92
2023-04-29T11:10:20.461Z,92
2023-04-29T11:15:20.335Z,92
2023-04-29T11:20:20.434Z,92
2023-04-29T11:25:20.448Z,91
2023-04-29T11:30:20.292Z,91
2023-04-29T11:35:20.417Z,91
2023-04-29T11:40:20.390Z,90
2023-04-29T11:45:20.477Z,89
2023-04-29T11:50:20.857Z,88
2023-04-29T11:55:17.249Z,86
2023-04-29T12:00:20.535Z,84
2023-04-29T12:05:20.741Z,84
2023-04-29T12:10:20.464Z,83
2023-04-29T12:15:20.514Z,81
2023-04-29T12:20:21.189Z,81
2023-04-29T12:25:20.527Z,78
2023-04-29T12:30:20.400Z,79
2023-04-29T12:35:20.467Z,77
2023-04-29T12:40:18.348Z,76
2023-04-29T12:45:17.310Z,74
2023-04-29T12:50:17.310Z,75
2023-04-29T12:55:20.577Z,73
2023-04-29T13:00:19.499Z,71
2023-04-29T13:05:16.367Z,70
2023-04-29T13:10:16.343Z,69
2023-04-29T13:15:19.576Z,68
2023-04-29T13:20:19.588Z,69
2023-04-29T13:25:19.494Z,69
2023-04-29T13:30:19.810Z,67
2023-04-29T13:35:19.580Z,68
2023-04-29T13:40:21.163Z,66
2023-04-29T13:45:19.632Z,67
2023-04-29T13:50:57.572Z,65
2023-04-29T13:56:23.402Z,66
2023-04-29T14:00:38.022Z,65
2023-04-29T14:05:16.894Z,64
2023-04-29T14:10:19.668Z,63
2023-04-29T14:15:19.695Z,62
2023-04-29T14:20:19.633Z,62
2023-04-29T14:25:19.646Z,62
2023-04-29T14:30:19.661Z,61
2023-04-29T14:35:19.636Z,62
2023-04-29T14:40:19.665Z,63
2023-04-29T14:45:19.731Z,62
2023-04-29T14:50:16.575Z,61
2023-04-29T14:55:16.512Z,61
2023-04-29T15:00:19.766Z,61
2023-04-29T15:05:19.661Z,61
2023-04-29T15:10:19.597Z,62
2023-04-29T15:15:19.631Z,62
2023-04-29T15:20:19.709Z,61
2023-04-29T15:25:19.720Z,61
2023-04-29T15:30:19.676Z,61
2023-04-29T15:35:19.657Z,59
2023-04-29T15:40:19.847Z,61
2023-04-29T15:45:16.699Z,61
2023-04-29T15:50:16.530Z,61
2023-04-29T15:55:19.857Z,61
2023-04-29T16:00:19.784Z,62
2023-04-29T16:05:19.751Z,64
2023-04-29T16:10:19.820Z,64
2023-04-29T16:15:19.768Z,66
2023-04-29T16:20:19.713Z,66
2023-04-29T16:25:19.868Z,67
2023-04-29T16:30:19.802Z,68
2023-04-29T16:35:19.779Z,69
2023-04-29T16:40:16.806Z,69
2023-04-29T16:45:21.590Z,70
2023-04-29T16:50:19.774Z,70
2023-04-29T16:55:19.881Z,71
2023-04-29T17:00:19.769Z,71
2023-04-29T17:05:19.997Z,71
2023-04-29T17:10:19.851Z,72
2023-04-29T17:15:19.808Z,72
2023-04-29T17:20:19.958Z,72
2023-04-29T17:25:19.820Z,74
2023-04-29T17:30:16.756Z,73
2023-04-29T17:35:16.776Z,74
2023-04-29T17:40:20.108Z,74
2023-04-29T17:45:19.938Z,74
2023-04-29T17:50:19.968Z,73
2023-04-29T17:55:19.993Z,74
2023-04-29T18:00:19.918Z,74
2023-04-29T18:05:19.926Z,74
2023-04-29T18:10:19.903Z,74
2023-04-29T18:15:19.928Z,74
2023-04-29T18:20:19.908Z,75
2023-04-29T18:25:16.943Z,75
2023-04-29T18:30:17.883Z,76
2023-04-29T18:35:20.018Z,75
2023-04-29T18:40:19.977Z,76
2023-04-29T18:45:20.016Z,76
2023-04-29T18:50:20.134Z,76
2023-04-29T18:55:19.975Z,75
2023-04-29T19:00:20.058Z,76
2023-04-29T19:05:19.983Z,76
2023-04-29T19:10:19.964Z,76
2023-04-29T19:15:20.024Z,76
2023-04-29T19:20:16.936Z,76
2023-04-29T19:25:20.063Z,76
2023-04-29T19:30:19.990Z,76
2023-04-29T19:35:20.051Z,76
2023-04-29T19:40:20.057Z,76
2023-04-29T19:45:20.123Z,76
2023-04-29T19:50:20.064Z,76
2023-04-29T19:55:19.968Z,77
2023-04-29T20:00:20.205Z,78
2023-04-29T20:05:20.078Z,77
2023-04-29T20:10:17.052Z,77
2023-04-29T20:15:16.984Z,77
2023-04-29T20:20:20.120Z,77
2023-04-29T20:25:20.128Z,76
2023-04-29T20:30:20.085Z,76
2023-04-29T20:35:20.155Z,75
2023-04-29T20:40:20.206Z,73
2023-04-29T20:45:20.181Z,74
2023-04-29T20:50:20.176Z,74
2023-04-29T20:55:20.234Z,75
2023-04-29T21:00:20.118Z,76
2023-04-29T21:05:17.030Z,76
2023-04-29T21:10:17.124Z,77
2023-04-29T21:15:20.261Z,78
2023-04-29T21:20:20.195Z,77
2023-04-29T21:25:20.157Z,78
2023-04-29T21:30:20.261Z,79
2023-04-29T21:35:20.201Z,79
2023-04-29T21:40:20.226Z,79
2023-04-29T21:45:20.281Z,80
2023-04-29T21:50:20.272Z,80
2023-04-29T21:55:20.213Z,81
2023-04-29T22:00:17.178Z,81
2023-04-29T22:05:20.411Z,82
2023-04-29T22:10:20.273Z,83
2023-04-29T22:15:28.124Z,83
2023-04-29T22:20:20.295Z,83
2023-04-29T22:25:20.221Z,83
2023-04-29T22:30:20.283Z,83
2023-04-29T22:35:20.331Z,84
2023-04-29T22:40:20.254Z,85
2023-04-29T22:45:20.403Z,85
2023-04-29T22:50:17.222Z,86
2023-04-29T22:55:17.224Z,87
2023-04-29T23:00:20.585Z,87
2023-04-29T23:05:20.627Z,87
2023-04-29T23:10:20.305Z,88
2023-04-29T23:15:20.396Z,88
2023-04-29T23:20:20.540Z,88
2023-04-29T23:25:20.360Z,88
2023-04-29T23:30:20.340Z,89
2023-04-29T23:35:20.491Z,89
2023-04-29T23:40:20.460Z,89
2023-04-29T23:45:17.316Z,89
2023-04-29T23:50:17.276Z,90
2023-04-29T23:55:20.439Z,90
